Time;durP1;ratioP1;P1;durP2;ratioP2;P2;SDS_P1;SDS_P2;PMS_P1;PMS_P2;Temp;Humidity;BMP_temperature;BMP_pressure;BME280_temperature;BME280_humidity;BME280_pressure;Samples;Min_cycle;Max_cycle;Signal;HPM_P1;HPM_P2
2023/06/24 00:01:28;;;;;;;10.10;5.10;;;;;;;18.67;82.37;99246.86;107893;1308;22429;-46
2023/06/24 00:03:53;;;;;;;10.00;5.50;;;;;;;18.60;84.39;99250.22;107897;1308;23027;-51
2023/06/24 00:06:25;;;;;;;10.00;5.70;;;;;;;18.51;84.75;99257.19;107889;1308;22888;-44
2023/06/24 00:08:52;;;;;;;8.30;5.60;;;;;;;18.47;84.76;99257.70;107866;1308;22293;-44
2023/06/24 00:11:18;;;;;;;9.20;5.70;;;;;;;18.46;84.77;99266.89;107931;1308;22396;-47
2023/06/24 00:13:44;;;;;;;11.80;5.50;;;;;;;18.45;85.45;99269.41;107895;1308;22188;-50
2023/06/24 00:16:10;;;;;;;8.70;5.40;;;;;;;18.43;84.63;99272.45;107872;1308;22308;-40
2023/06/24 00:18:40;;;;;;;7.70;5.40;;;;;;;18.41;84.00;99280.08;107894;1308;22251;-45
2023/06/24 00:21:06;;;;;;;9.00;5.40;;;;;;;18.42;83.78;99281.91;107897;1308;22252;-42
2023/06/24 00:23:34;;;;;;;6.90;5.40;;;;;;;18.36;85.26;99280.14;107912;1308;22296;-43
2023/06/24 00:25:59;;;;;;;11.60;5.70;;;;;;;18.34;84.27;99280.33;107892;1308;23020;-52
2023/06/24 00:28:25;;;;;;;11.70;5.60;;;;;;;18.33;85.28;99282.88;107925;1292;22231;-48
2023/06/24 00:30:50;;;;;;;9.90;5.50;;;;;;;18.37;84.39;99282.73;107926;1308;22248;-51
2023/06/24 00:33:16;;;;;;;10.70;5.60;;;;;;;18.41;83.52;99289.45;107863;1308;22210;-51
2023/06/24 00:35:43;;;;;;;8.60;5.50;;;;;;;18.42;84.20;99288.31;107900;1308;22382;-44
2023/06/24 00:38:08;;;;;;;6.90;5.00;;;;;;;18.44;84.14;99287.14;107905;1308;22246;-44
2023/06/24 00:40:34;;;;;;;7.20;5.20;;;;;;;18.42;83.52;99292.54;107878;1308;22907;-43
2023/06/24 00:43:01;;;;;;;7.50;5.10;;;;;;;18.42;83.79;99289.95;107902;1308;22379;-51
2023/06/24 00:45:27;;;;;;;6.40;4.90;;;;;;;18.41;82.72;99293.87;107903;1308;22244;-46
2023/06/24 00:47:55;;;;;;;8.90;4.80;;;;;;;18.41;83.02;99296.42;107903;1308;22237;-51
2023/06/24 00:50:20;;;;;;;6.80;5.10;;;;;;;18.39;83.03;99288.78;107912;1308;22361;-53
2023/06/24 00:52:47;;;;;;;10.50;5.50;;;;;;;18.37;83.32;99294.10;107889;1308;22256;-49
2023/06/24 00:55:14;;;;;;;9.30;5.90;;;;;;;18.35;82.74;99295.30;107917;1308;22225;-45
2023/06/24 00:57:42;;;;;;;9.00;5.20;;;;;;;18.34;82.91;99294.16;107901;1308;22941;-52
2023/06/24 01:00:11;;;;;;;10.40;5.70;;;;;;;18.34;82.84;99292.95;107905;1308;22245;-56
2023/06/24 01:02:37;;;;;;;10.30;4.90;;;;;;;18.31;82.46;99288.93;107866;1308;22217;-49
2023/06/24 01:05:05;;;;;;;9.70;5.30;;;;;;;18.30;82.45;99282.80;107908;1308;22464;-52
2023/06/24 01:07:31;;;;;;;9.00;5.30;;;;;;;18.25;82.09;99274.91;107908;1308;22895;-52
2023/06/24 01:09:57;;;;;;;7.30;5.30;;;;;;;18.24;81.75;99271.46;107890;1308;23528;-44
2023/06/24 01:12:22;;;;;;;6.00;4.90;;;;;;;18.25;81.54;99272.08;107897;1308;22228;-54
2023/06/24 01:14:48;;;;;;;8.80;5.20;;;;;;;18.28;81.00;99270.25;107874;1308;22973;-48
2023/06/24 01:17:24;;;;;;;7.60;4.70;;;;;;;18.31;81.27;99268.02;107913;1308;22372;-47
2023/06/24 01:20:10;;;;;;;8.90;5.30;;;;;;;18.24;81.28;99265.23;107887;1308;22463;-52
2023/06/24 01:23:13;;;;;;;9.20;5.20;;;;;;;18.26;81.85;99272.20;107893;1308;22226;-46
2023/06/24 01:26:06;;;;;;;8.00;5.00;;;;;;;18.23;81.83;99273.87;107918;1308;22272;-48
2023/06/24 01:29:13;;;;;;;8.70;5.10;;;;;;;18.16;81.96;99275.38;107926;1308;22476;-46
2023/06/24 01:31:49;;;;;;;6.30;5.10;;;;;;;18.13;82.24;99281.30;107165;1301;22262;-47
2023/06/24 01:34:15;;;;;;;7.30;5.20;;;;;;;18.13;82.38;99280.27;107199;1315;22267;-53
2023/06/24 01:36:46;;;;;;;12.10;4.70;;;;;;;18.18;82.67;99278.36;107180;1315;22265;-49
2023/06/24 01:39:16;;;;;;;8.10;5.20;;;;;;;18.21;82.71;99282.86;107206;1315;22234;-49
2023/06/24 01:41:50;;;;;;;13.80;5.70;;;;;;;18.20;83.33;99291.09;107188;1315;22231;-44
2023/06/24 01:44:17;;;;;;;7.90;5.20;;;;;;;18.22;83.67;99301.08;106871;1315;22327;-46
2023/06/24 01:46:44;;;;;;;;;;;;;;;18.23;83.09;99304.92;107170;1315;22653;-47
2023/06/24 01:49:14;;;;;;;8.50;5.50;;;;;;;18.20;84.00;99306.01;107173;1315;22448;-45
2023/06/24 01:51:41;;;;;;;9.70;5.00;;;;;;;18.19;83.79;99306.79;107184;1315;22601;-55
2023/06/24 01:54:13;;;;;;;9.10;5.10;;;;;;;18.20;83.48;99313.29;107181;1315;22825;-43
2023/06/24 01:56:39;;;;;;;8.50;4.90;;;;;;;18.15;84.22;99319.64;107189;1315;22321;-47
2023/06/24 01:59:05;;;;;;;10.40;4.90;;;;;;;18.09;84.07;99323.12;107177;1315;22441;-47
2023/06/24 02:01:37;;;;;;;10.80;5.00;;;;;;;18.11;83.75;99322.07;107184;1315;22409;-45
2023/06/24 02:04:04;;;;;;;7.00;4.90;;;;;;;18.11;84.81;99326.31;107164;1315;22295;-50
2023/06/24 02:06:30;;;;;;;5.90;4.40;;;;;;;18.12;85.20;99328.00;107176;1315;22249;-46
2023/06/24 02:08:58;;;;;;;6.40;4.70;;;;;;;18.14;85.77;99330.50;107528;1308;22233;-46
2023/06/24 02:11:24;;;;;;;9.20;4.90;;;;;;;18.17;84.56;99333.23;107904;1308;22390;-42
2023/06/24 02:13:51;;;;;;;7.00;4.60;;;;;;;18.16;84.96;99335.45;107859;1308;22372;-49
2023/06/24 02:16:17;;;;;;;8.00;5.80;;;;;;;18.16;84.70;99339.25;107883;1308;22280;-49
2023/06/24 02:18:44;;;;;;;6.70;4.80;;;;;;;18.11;85.14;99340.38;107877;1308;22217;-45
2023/06/24 02:21:11;;;;;;;9.00;5.00;;;;;;;18.10;84.11;99340.46;107922;1308;22166;-49
2023/06/24 02:23:37;;;;;;;8.90;4.80;;;;;;;18.06;85.60;99339.58;107891;1308;22209;-52
2023/06/24 02:26:05;;;;;;;5.90;5.00;;;;;;;18.01;85.99;99343.13;107868;1308;22244;-52
2023/06/24 02:28:32;;;;;;;7.00;4.80;;;;;;;18.01;85.89;99347.63;107896;1308;22259;-44
2023/06/24 02:30:59;;;;;;;8.30;5.20;;;;;;;18.00;86.67;99351.72;107890;1308;22437;-49
2023/06/24 02:33:24;;;;;;;6.40;5.20;;;;;;;18.01;86.62;99356.63;107884;1308;22399;-46
2023/06/24 02:35:49;;;;;;;11.00;5.50;;;;;;;17.97;87.74;99360.36;107840;1308;22374;-46
2023/06/24 02:38:15;;;;;;;7.60;5.80;;;;;;;17.96;87.62;99363.58;107879;1308;22234;-49
2023/06/24 02:43:40;;;;;;;6.10;5.20;;;;;;;17.99;88.52;99369.75;106986;1311;545481;-45
2023/06/24 02:46:09;;;;;;;7.50;5.50;;;;;;;17.95;89.95;99369.56;107380;1313;22400;-49
2023/06/24 02:48:37;;;;;;;12.00;6.30;;;;;;;17.93;90.93;99370.47;107359;1313;23602;-49
2023/06/24 02:51:03;;;;;;;7.90;6.10;;;;;;;17.89;91.19;99373.28;107590;1310;22408;-47
2023/06/24 02:53:30;;;;;;;8.40;5.50;;;;;;;17.92;89.94;99373.35;107618;1310;22228;-48
2023/06/24 02:55:56;;;;;;;6.90;5.50;;;;;;;17.89;89.64;99375.95;107628;1311;22528;-39
2023/06/24 02:58:24;;;;;;;10.70;6.20;;;;;;;17.85;90.69;99377.47;107681;1308;173220;-47
2023/06/24 03:00:49;;;;;;;8.50;6.10;;;;;;;17.85;91.77;99375.01;107822;1308;22337;-47
2023/06/24 03:03:15;;;;;;;9.50;6.20;;;;;;;17.85;91.14;99371.94;107803;1308;22945;-48
2023/06/24 03:05:44;;;;;;;8.10;6.60;;;;;;;17.83;92.39;99369.98;107797;1308;22418;-50
2023/06/24 03:08:10;;;;;;;13.00;6.10;;;;;;;17.86;93.61;99376.33;107832;1308;22230;-47
2023/06/24 03:10:37;;;;;;;10.70;6.30;;;;;;;17.91;92.12;99378.91;107823;1308;22261;-51
2023/06/24 03:13:02;;;;;;;8.50;6.40;;;;;;;17.92;92.49;99379.56;107824;1308;22248;-48
2023/06/24 03:15:28;;;;;;;11.30;6.50;;;;;;;17.95;92.87;99382.86;107799;1308;22323;-50
2023/06/24 03:17:54;;;;;;;10.30;6.60;;;;;;;17.94;93.97;99384.51;107992;1307;22236;-51
2023/06/24 03:20:20;;;;;;;11.50;6.80;;;;;;;17.94;93.32;99383.16;107994;1307;22459;-51
2023/06/24 03:22:45;;;;;;;10.70;6.70;;;;;;;17.92;94.94;99384.91;108001;1307;22995;-50
2023/06/24 03:25:10;;;;;;;10.10;6.50;;;;;;;17.93;94.82;99391.70;107990;1307;22248;-49
2023/06/24 03:27:36;;;;;;;11.00;7.30;;;;;;;17.93;96.53;99391.91;107986;1307;22242;-46
2023/06/24 03:30:02;;;;;;;10.00;7.10;;;;;;;17.94;96.20;99392.04;108017;1307;22455;-41
2023/06/24 03:32:27;;;;;;;10.50;7.30;;;;;;;17.95;95.84;99394.54;108021;1307;22232;-51
2023/06/24 03:34:53;;;;;;;11.30;7.50;;;;;;;17.98;96.55;99391.11;108005;1307;22221;-51
2023/06/24 03:37:18;;;;;;;9.90;7.20;;;;;;;17.95;98.35;99394.91;108003;1307;22255;-49
2023/06/24 03:39:43;;;;;;;10.50;7.50;;;;;;;17.97;97.07;99395.45;107984;1307;22895;-52
2023/06/24 03:42:09;;;;;;;11.30;7.40;;;;;;;17.96;96.99;99395.02;107984;1307;22266;-46
2023/06/24 03:44:34;;;;;;;11.70;7.10;;;;;;;17.98;97.56;99392.03;108001;1307;22350;-46
2023/06/24 03:46:59;;;;;;;11.40;7.90;;;;;;;17.99;95.87;99387.46;108008;1307;22916;-49
2023/06/24 03:49:24;;;;;;;8.90;7.20;;;;;;;18.01;96.18;99391.20;108013;1307;22248;-48
2023/06/24 03:51:50;;;;;;;11.50;7.90;;;;;;;18.01;97.17;99390.16;108010;1307;23024;-40
2023/06/24 03:54:15;;;;;;;10.70;7.80;;;;;;;18.05;96.97;99390.17;108000;1307;22217;-50
2023/06/24 03:56:40;;;;;;;12.10;8.30;;;;;;;18.04;98.16;99391.02;108018;1307;22267;-42
2023/06/24 03:59:06;;;;;;;14.30;8.30;;;;;;;18.09;98.91;99393.42;107983;1307;22899;-44
2023/06/24 04:01:31;;;;;;;13.60;7.50;;;;;;;18.17;98.22;99396.79;107991;1307;22453;-48
2023/06/24 04:03:57;;;;;;;11.00;7.60;;;;;;;18.20;98.48;99393.70;107992;1307;22337;-48
2023/06/24 04:06:23;;;;;;;11.00;7.70;;;;;;;18.28;96.38;99393.88;107987;1307;23161;-45
2023/06/24 04:08:48;;;;;;;9.30;7.60;;;;;;;18.33;95.80;99394.52;108004;1307;23112;-53
2023/06/24 04:11:14;;;;;;;13.60;7.80;;;;;;;18.32;96.62;99396.56;108024;1307;22322;-48
2023/06/24 04:13:39;;;;;;;13.20;8.20;;;;;;;18.31;96.53;99396.14;108006;1307;22331;-51
2023/06/24 04:16:05;;;;;;;11.20;8.20;;;;;;;18.27;97.63;99396.28;108013;1307;22318;-49
2023/06/24 04:18:30;;;;;;;12.20;8.60;;;;;;;18.29;98.67;99394.86;107993;1307;23065;-47
2023/06/24 04:20:55;;;;;;;11.40;8.50;;;;;;;18.34;98.67;99400.86;107993;1307;22244;-48
2023/06/24 04:23:20;;;;;;;10.80;8.30;;;;;;;18.35;98.44;99397.55;108003;1307;22993;-50
2023/06/24 04:25:46;;;;;;;16.50;9.00;;;;;;;18.36;98.43;99399.02;108004;1307;22264;-46
2023/06/24 04:28:11;;;;;;;14.10;9.60;;;;;;;18.39;98.69;99400.41;107999;1307;22233;-49
2023/06/24 04:30:38;;;;;;;14.00;8.50;;;;;;;18.43;97.42;99405.90;107995;1307;23075;-49
2023/06/24 04:33:04;;;;;;;10.80;8.50;;;;;;;18.37;98.73;99406.27;107999;1307;22291;-52
2023/06/24 04:35:30;;;;;;;17.60;8.90;;;;;;;18.40;98.33;99410.77;107984;1307;22414;-47
2023/06/24 04:37:55;;;;;;;16.60;9.80;;;;;;;18.44;98.63;99408.88;108017;1307;22453;-51
2023/06/24 04:40:21;;;;;;;16.60;9.10;;;;;;;18.49;98.86;99412.77;108004;1307;22224;-48
2023/06/24 04:42:46;;;;;;;11.60;9.00;;;;;;;18.50;98.48;99415.98;107989;1307;22992;-51
2023/06/24 04:45:11;;;;;;;13.20;9.30;;;;;;;18.52;98.46;99424.91;107987;1307;22303;-48
2023/06/24 04:47:37;;;;;;;13.70;9.20;;;;;;;18.54;98.04;99428.62;107988;1298;22435;-51
2023/06/24 04:50:03;;;;;;;16.70;10.20;;;;;;;18.55;98.04;99431.85;108012;1307;22215;-45
2023/06/24 04:52:29;;;;;;;11.40;9.10;;;;;;;18.54;99.45;99431.30;108029;1307;22260;-46
2023/06/24 04:54:54;;;;;;;12.60;9.60;;;;;;;18.56;98.71;99435.32;108018;1307;22228;-50
2023/06/24 04:57:38;;;;;;;14.00;9.10;;;;;;;18.57;99.34;99437.42;108000;1307;22915;-56
2023/06/24 05:00:04;;;;;;;12.60;9.30;;;;;;;18.57;99.26;99437.20;108020;1307;22362;-45
2023/06/24 05:02:29;;;;;;;13.70;9.70;;;;;;;18.53;99.36;99442.55;108035;1307;23057;-46
2023/06/24 05:04:55;;;;;;;15.50;10.00;;;;;;;18.51;99.14;99443.60;107934;1292;22671;-45
2023/06/24 05:07:20;;;;;;;16.80;10.10;;;;;;;18.51;98.40;99450.16;107820;1308;22267;-43
2023/06/24 05:09:50;;;;;;;16.70;9.50;;;;;;;18.49;98.48;99454.42;107829;1308;22157;-53
2023/06/24 05:12:16;;;;;;;12.50;10.60;;;;;;;18.49;99.91;99458.90;107839;1308;22379;-51
2023/06/24 05:14:41;;;;;;;13.30;10.20;;;;;;;18.47;99.88;99462.45;107819;1308;22272;-48
2023/06/24 05:17:06;;;;;;;14.80;10.60;;;;;;;18.44;99.89;99468.02;107852;1308;22226;-52
2023/06/24 05:19:32;;;;;;;18.80;11.00;;;;;;;18.42;100.00;99471.70;107870;1308;22234;-43
2023/06/24 05:21:58;;;;;;;16.80;10.60;;;;;;;18.42;99.90;99470.73;107801;1308;22252;-51
2023/06/24 05:24:23;;;;;;;20.60;11.10;;;;;;;18.37;99.94;99474.74;107834;1308;22289;-47
2023/06/24 05:26:50;;;;;;;15.50;11.00;;;;;;;18.38;100.00;99479.52;107861;1308;22311;-43
2023/06/24 05:29:15;;;;;;;16.20;11.50;;;;;;;18.32;100.00;99478.95;107890;1308;22668;-49
2023/06/24 05:31:41;;;;;;;20.40;11.60;;;;;;;18.36;100.00;99481.64;107860;1308;23136;-51
2023/06/24 05:34:07;;;;;;;19.80;12.40;;;;;;;18.40;100.00;99484.45;107864;1308;22952;-46
2023/06/24 05:36:32;;;;;;;19.70;11.00;;;;;;;18.39;100.00;99487.89;107854;1308;22211;-48
2023/06/24 05:38:57;;;;;;;18.70;11.00;;;;;;;18.41;100.00;99489.66;107830;1308;22247;-51
2023/06/24 05:41:22;;;;;;;21.40;10.90;;;;;;;18.45;100.00;99487.11;107842;1308;22451;-53
2023/06/24 05:43:48;;;;;;;19.70;10.90;;;;;;;18.45;100.00;99483.16;107852;1308;22281;-43
2023/06/24 05:46:13;;;;;;;19.10;11.90;;;;;;;18.45;100.00;99479.45;107854;1308;22274;-53
2023/06/24 05:48:39;;;;;;;20.50;11.20;;;;;;;18.47;100.00;99479.64;107825;1308;22213;-47
2023/06/24 05:51:04;;;;;;;19.20;11.10;;;;;;;18.52;100.00;99486.48;107824;1308;22239;-50
2023/06/24 05:53:30;;;;;;;16.90;11.70;;;;;;;18.54;100.00;99493.91;54476;1308;1006047;-48
2023/06/24 05:55:56;;;;;;;21.30;12.30;;;;;;;18.49;100.00;99495.60;54209;1308;1006499;-53
2023/06/24 05:58:22;;;;;;;17.10;12.00;;;;;;;18.54;100.00;99495.32;54214;1308;1006913;-45
2023/06/24 06:00:48;;;;;;;19.90;12.20;;;;;;;18.57;100.00;99496.01;54228;1288;1006495;-46
2023/06/24 06:03:14;;;;;;;17.70;11.90;;;;;;;18.58;100.00;99502.80;54182;1308;1006763;-42
2023/06/24 06:05:40;;;;;;;18.00;12.40;;;;;;;18.56;100.00;99505.77;54226;1308;1006299;-49
2023/06/24 06:08:06;;;;;;;16.00;11.60;;;;;;;18.61;100.00;99508.05;54185;1308;1007149;-53
2023/06/24 06:10:33;;;;;;;19.50;11.10;;;;;;;18.54;100.00;99506.70;54236;1308;1006932;-46
2023/06/24 06:12:59;;;;;;;18.70;12.00;;;;;;;18.56;100.00;99510.80;54225;1308;1006812;-50
2023/06/24 06:15:25;;;;;;;14.10;11.70;;;;;;;18.56;100.00;99516.85;54219;1308;1006806;-46
2023/06/24 06:17:52;;;;;;;20.30;12.50;;;;;;;18.54;100.00;99517.68;54174;1308;1006889;-48
2023/06/24 06:20:17;;;;;;;16.70;11.60;;;;;;;18.58;100.00;99521.11;53672;1308;1006668;-46
2023/06/24 06:22:43;;;;;;;16.40;12.00;;;;;;;18.57;100.00;99520.83;54189;1308;1006885;-49
2023/06/24 06:25:09;;;;;;;15.60;11.70;;;;;;;18.57;100.00;99524.53;53864;1308;1017674;-47
2023/06/24 06:27:36;;;;;;;14.80;12.00;;;;;;;18.56;100.00;99523.41;53583;1308;1015756;-51
2023/06/24 06:30:03;;;;;;;16.70;11.10;;;;;;;18.57;100.00;99524.05;53791;1308;1015587;-41
2023/06/24 06:32:29;;;;;;;14.70;10.80;;;;;;;18.52;100.00;99520.54;53681;1300;1006956;-47
2023/06/24 06:34:55;;;;;;;17.20;11.10;;;;;;;18.54;100.00;99528.73;54199;1308;1006917;-46
2023/06/24 06:37:21;;;;;;;20.70;10.80;;;;;;;18.55;100.00;99530.62;54148;1308;1006999;-42
2023/06/24 06:39:47;;;;;;;14.80;10.70;;;;;;;18.53;100.00;99532.16;54181;1308;1006919;-50
2023/06/24 06:42:14;;;;;;;14.50;10.50;;;;;;;18.56;100.00;99535.16;54190;1308;1007064;-53
2023/06/24 06:44:40;;;;;;;16.60;11.20;;;;;;;18.55;100.00;99533.80;53643;1308;1007349;-48
2023/06/24 06:47:06;;;;;;;18.40;10.70;;;;;;;18.54;100.00;99531.45;53979;1308;1006869;-46
2023/06/24 06:49:32;;;;;;;16.80;10.50;;;;;;;18.55;100.00;99534.11;53809;1308;1006759;-47
2023/06/24 06:51:58;;;;;;;16.70;10.70;;;;;;;18.53;100.00;99536.30;54225;1308;1006453;-47
2023/06/24 06:54:24;;;;;;;14.20;11.30;;;;;;;18.47;100.00;99537.18;54191;1308;1006952;-47
2023/06/24 06:56:50;;;;;;;18.70;11.00;;;;;;;18.52;100.00;99533.56;54216;1285;1006861;-53
2023/06/24 06:59:17;;;;;;;18.20;11.20;;;;;;;18.55;100.00;99538.42;54178;1308;1006626;-45
2023/06/24 07:01:43;;;;;;;18.20;10.70;;;;;;;18.52;100.00;99537.66;53653;1308;1007203;-50
2023/06/24 07:04:09;;;;;;;19.60;10.70;;;;;;;18.44;100.00;99537.77;53991;1308;1006537;-42
2023/06/24 07:06:35;;;;;;;15.70;11.40;;;;;;;18.36;100.00;99531.64;54204;1308;1006873;-48
2023/06/24 07:09:01;;;;;;;14.00;10.00;;;;;;;18.37;100.00;99532.64;54161;1308;1006562;-54
2023/06/24 07:11:27;;;;;;;16.90;11.20;;;;;;;18.33;100.00;99535.48;54175;1308;1006988;-46
2023/06/24 07:13:53;;;;;;;15.90;11.00;;;;;;;18.37;100.00;99532.82;54205;1308;1006962;-48
2023/06/24 07:16:20;;;;;;;20.20;11.10;;;;;;;18.42;100.00;99534.17;54147;1308;1006808;-44
2023/06/24 07:18:46;;;;;;;17.70;10.10;;;;;;;18.44;100.00;99534.73;53864;1308;1006295;-48
2023/06/24 07:21:12;;;;;;;13.20;10.20;;;;;;;18.41;100.00;99531.55;54152;1308;1006973;-48
2023/06/24 07:23:38;;;;;;;17.60;10.40;;;;;;;18.47;100.00;99530.91;54124;1308;1006595;-42
2023/06/24 07:26:04;;;;;;;15.00;9.80;;;;;;;18.51;100.00;99534.09;54153;1308;1006344;-41
2023/06/24 07:28:30;;;;;;;16.40;9.60;;;;;;;18.48;100.00;99533.16;54224;1308;1007011;-48
2023/06/24 07:30:56;;;;;;;15.60;9.50;;;;;;;18.45;100.00;99534.64;54185;1308;1006925;-48
2023/06/24 07:33:22;;;;;;;14.40;9.20;;;;;;;18.47;100.00;99540.02;54219;1308;1006471;-46
2023/06/24 07:35:48;;;;;;;10.00;8.80;;;;;;;18.47;100.00;99537.55;54247;1308;1006623;-44
2023/06/24 07:38:15;;;;;;;13.80;9.30;;;;;;;18.40;100.00;99537.69;54227;1289;1006392;-46
2023/06/24 07:40:41;;;;;;;15.30;9.70;;;;;;;18.34;100.00;99539.80;54163;1308;1006699;-47
2023/06/24 07:43:07;;;;;;;14.90;10.10;;;;;;;18.28;100.00;99541.02;54167;1308;1014843;-50
2023/06/24 07:45:33;;;;;;;16.60;10.40;;;;;;;18.32;100.00;99541.39;54205;1308;1006944;-49
2023/06/24 07:47:59;;;;;;;16.10;10.30;;;;;;;18.35;100.00;99543.42;54197;1308;1007020;-48
2023/06/24 07:50:25;;;;;;;14.40;10.90;;;;;;;18.40;100.00;99540.66;54027;1308;1006812;-55
2023/06/24 07:52:51;;;;;;;15.40;10.90;;;;;;;18.42;100.00;99542.88;53619;1308;1015649;-55
2023/06/24 07:55:17;;;;;;;15.10;10.90;;;;;;;18.49;100.00;99545.67;53592;1308;1015859;-47
2023/06/24 07:57:47;;;;;;;15.50;11.10;;;;;;;18.47;100.00;99544.97;53626;1308;1016231;-47
2023/06/24 08:00:13;;;;;;;15.50;11.00;;;;;;;18.51;100.00;99550.98;53457;1308;1018759;-50
2023/06/24 08:02:41;;;;;;;17.80;11.20;;;;;;;18.54;100.00;99553.59;53662;1308;1007173;-51
2023/06/24 08:05:07;;;;;;;14.10;11.00;;;;;;;18.59;100.00;99554.41;53685;1308;1007590;-46
2023/06/24 08:07:32;;;;;;;15.00;10.80;;;;;;;18.56;100.00;99561.23;53861;1308;1006781;-52
2023/06/24 08:09:58;;;;;;;16.30;10.60;;;;;;;18.48;100.00;99558.67;54175;1308;1006717;-50
2023/06/24 08:12:24;;;;;;;16.10;11.20;;;;;;;18.46;100.00;99562.63;54205;1308;1006853;-55
2023/06/24 08:14:51;;;;;;;14.60;10.70;;;;;;;18.43;100.00;99571.41;54192;1308;1006992;-51
2023/06/24 08:17:17;;;;;;;16.40;10.60;;;;;;;18.27;100.00;99573.55;54195;1308;1006963;-43
2023/06/24 08:19:43;;;;;;;17.60;10.80;;;;;;;18.25;100.00;99580.30;54150;1308;1006465;-55
2023/06/24 08:22:09;;;;;;;17.00;10.80;;;;;;;18.20;99.98;99578.81;54218;1308;1006559;-44
2023/06/24 08:24:36;;;;;;;14.10;10.20;;;;;;;18.23;99.91;99586.34;54090;1308;1006768;-50
2023/06/24 08:27:02;;;;;;;11.60;9.50;;;;;;;18.16;99.75;99587.68;53651;1308;1007124;-51
2023/06/24 08:29:28;;;;;;;12.10;8.90;;;;;;;18.08;99.87;99588.98;53995;1308;1006543;-50
2023/06/24 08:31:54;;;;;;;11.70;9.40;;;;;;;18.08;99.79;99597.52;54205;1308;1006768;-48
2023/06/24 08:34:20;;;;;;;12.40;8.20;;;;;;;18.08;99.85;99593.77;54181;1308;1006542;-52
2023/06/24 08:36:46;;;;;;;11.20;8.30;;;;;;;18.11;98.39;99598.33;54157;1308;1006746;-56
2023/06/24 08:39:12;;;;;;;10.70;8.80;;;;;;;18.12;97.81;99593.45;54198;1308;1006695;-58
2023/06/24 08:41:38;;;;;;;14.00;8.00;;;;;;;18.15;97.24;99594.95;54154;1308;1006626;-50
2023/06/24 08:44:05;;;;;;;10.50;7.70;;;;;;;18.19;97.57;99595.00;54136;1308;1006976;-52
2023/06/24 08:46:32;;;;;;;11.90;8.00;;;;;;;18.27;97.30;99595.81;54032;1308;1007154;-48
2023/06/24 08:49:09;;;;;;;15.80;8.30;;;;;;;18.31;96.37;99597.88;53635;1308;1007488;-54
2023/06/24 08:51:40;;;;;;;11.00;7.90;;;;;;;18.35;96.62;99598.11;53688;1308;1007293;-56
2023/06/24 08:54:09;;;;;;;11.20;7.80;;;;;;;18.49;96.82;99598.58;53656;1308;1007157;-51
2023/06/24 08:56:34;;;;;;;9.70;8.20;;;;;;;18.65;96.65;99598.33;53664;1308;1006961;-52
2023/06/24 08:59:00;;;;;;;9.60;7.30;;;;;;;18.87;98.22;99604.48;54038;1308;1006581;-42
2023/06/24 09:01:27;;;;;;;9.20;7.70;;;;;;;19.03;95.85;99609.50;53927;1308;1006932;-47
2023/06/24 09:03:52;;;;;;;10.90;7.60;;;;;;;19.16;94.61;99609.98;53811;1308;1006676;-56
2023/06/24 09:06:18;;;;;;;10.20;7.10;;;;;;;19.15;92.74;99606.88;54187;1308;1006662;-47
2023/06/24 09:09:16;;;;;;;11.40;8.10;;;;;;;19.18;91.75;99612.11;54198;1308;1006294;-54
2023/06/24 09:11:42;;;;;;;12.00;7.60;;;;;;;19.27;92.78;99612.77;53626;1308;1007600;-56
2023/06/24 09:14:11;;;;;;;9.40;6.70;;;;;;;19.37;91.76;99612.80;54092;1308;1007448;-50
2023/06/24 09:16:37;;;;;;;21.00;7.80;;;;;;;19.41;90.01;99616.35;53650;1308;1007568;-54
2023/06/24 09:19:03;;;;;;;10.90;7.20;;;;;;;19.45;88.63;99622.80;53672;1308;1015801;-46
2023/06/24 09:21:30;;;;;;;10.40;7.20;;;;;;;19.52;88.71;99622.87;53698;1306;1015572;-50
2023/06/24 09:23:57;;;;;;;10.10;7.20;;;;;;;19.50;87.81;99621.30;53196;1306;1015845;-55
2023/06/24 09:26:24;;;;;;;8.50;7.20;;;;;;;19.50;87.66;99624.44;53774;1306;1015954;-48
2023/06/24 09:28:50;;;;;;;9.70;6.90;;;;;;;19.60;89.50;99619.90;53804;1305;1007424;-42
2023/06/24 09:31:17;;;;;;;10.40;6.80;;;;;;;19.71;87.74;99622.11;53854;1306;1006638;-49
2023/06/24 09:33:43;;;;;;;9.30;6.50;;;;;;;19.72;87.04;99621.29;53800;1306;1006781;-43
2023/06/24 09:36:15;;;;;;;10.50;6.20;;;;;;;19.79;86.61;99619.50;54267;1305;1006668;-47
2023/06/24 09:38:44;;;;;;;10.50;6.50;;;;;;;19.93;87.31;99621.05;53811;1299;1009269;-48
2023/06/24 09:41:10;;;;;;;9.60;6.10;;;;;;;19.97;86.09;99616.27;53796;1305;1007303;-51
2023/06/24 09:43:36;;;;;;;10.40;7.00;;;;;;;20.09;85.63;99617.16;53986;1306;1006423;-52
2023/06/24 09:46:03;;;;;;;10.20;6.20;;;;;;;20.19;85.48;99614.18;53781;1306;1007569;-48
2023/06/24 09:48:28;;;;;;;12.20;6.30;;;;;;;20.35;86.20;99611.48;53799;1306;1007421;-50
2023/06/24 09:51:00;;;;;;;11.50;6.10;;;;;;;20.54;85.78;99614.55;54033;1306;1006787;-57
2023/06/24 09:53:26;;;;;;;10.50;5.90;;;;;;;20.60;82.67;99612.59;53761;1305;1007020;-44
2023/06/24 09:55:53;;;;;;;6.20;5.60;;;;;;;20.62;82.17;99614.70;54030;1306;1006093;-46
2023/06/24 09:58:20;;;;;;;8.90;5.60;;;;;;;20.62;82.71;99615.05;53810;1306;1007626;-47
2023/06/24 10:00:46;;;;;;;9.20;6.20;;;;;;;20.50;79.73;99614.01;53792;1306;1006810;-45
2023/06/24 10:03:12;;;;;;;9.70;6.30;;;;;;;20.51;81.29;99616.95;53785;1306;1006934;-54
2023/06/24 10:05:38;;;;;;;10.60;5.60;;;;;;;20.56;82.00;99618.45;54044;1306;1006667;-50
2023/06/24 10:08:08;;;;;;;10.30;5.80;;;;;;;20.63;82.22;99618.48;54050;1306;1006710;-44
2023/06/24 10:10:33;;;;;;;11.40;5.40;;;;;;;20.62;80.80;99621.45;53784;1306;1007702;-49
2023/06/24 10:12:59;;;;;;;8.30;6.00;;;;;;;20.62;81.26;99625.54;54319;1306;1007203;-43
2023/06/24 10:15:25;;;;;;;12.40;5.80;;;;;;;20.68;81.66;99623.37;54242;1306;1006241;-53
2023/06/24 10:17:51;;;;;;;8.10;5.50;;;;;;;20.71;80.95;99618.89;54178;1306;1006658;-45
2023/06/24 10:20:27;;;;;;;12.50;5.50;;;;;;;20.69;80.13;99621.54;54236;1306;1007120;-56
2023/06/24 10:22:52;;;;;;;7.10;5.10;;;;;;;20.67;79.66;99625.25;53808;1306;1007495;-49
2023/06/24 10:25:18;;;;;;;8.10;4.90;;;;;;;20.72;80.54;99623.27;54072;1306;1006868;-45
2023/06/24 10:27:44;;;;;;;8.30;4.60;;;;;;;20.73;79.69;99620.85;54144;1306;1006669;-54
2023/06/24 10:30:19;;;;;;;7.10;3.50;;;;;;;20.70;78.70;99625.48;54349;1306;1007454;-48
2023/06/24 10:32:44;;;;;;;7.30;3.40;;;;;;;20.58;74.49;99623.05;53809;1306;1007101;-49
2023/06/24 10:35:26;;;;;;;6.40;3.60;;;;;;;20.58;74.99;99619.50;54106;1306;1006321;-47
2023/06/24 10:37:59;;;;;;;11.30;3.60;;;;;;;20.62;74.64;99619.85;53791;1306;1007287;-48
2023/06/24 10:40:42;;;;;;;5.80;3.40;;;;;;;20.54;73.84;99620.41;53794;1306;1007039;-53
